Airport View

Enter AWOS ICAO identifier for current METAR.

ex. KFNL

KEWK 191256Z AUTO 08011KT 10SM FEW110 M07/M08 A3034 RMK AO2 SLP293 T10671083 FZRANO

19 Feb 2019 13:47

Frequency: 123.875

Phone: 316-283-8789

Other Area AWOS: K1K1 - KAAO - KBEC - K3AU

TAF KICT 191120Z 1912/2012 06010KT P6SM OVC100 FM192100 09010KT 3SM -SN SCT015 OVC025 FM192200 08009KT 1 1/2SM -SN OVC009 FM200000 08008KT 3/4SM -SN OVC007 FM200400 08006KT 3SM -FZDZSN OVC005 FM200900 VRB05KT 5SM BR OVC005